Data for 02/19/2012

Time Sea-Level Adjusted Pressure Absolute Pressure Temperature Relative Humidity Dew Point Precipitation   
(mb) (inHg) (mb) (inHg) (C) (F) (%) (C) (F) (mm) (in)
16:55 1012 29.88 841 24.83 -3.1 26.5 65 -8.8 16.2 -92 -3.622
16:56 1012 29.88 841 24.83 -3.1 26.5 65 -8.8 16.1 -92 -3.622
16:57 1012 29.88 842 24.86 -2.9 26.7 63 -9 15.8 -92 -3.622
16:58 1012 29.88 842 24.86 -2.8 26.9 63 -9 15.8 -92 -3.622
16:59 1012 29.88 842 24.86 -2.7 27.1 63 -8.8 16.1 -92 -3.622
17:00 1012 29.88 842 24.86 -2.6 27.3 63 -8.7 16.3 -92 -3.622
17:01 1012 29.88 842 24.86 -2.6 27.3 62 -8.9 16.1 -92 -3.622
17:02 1012 29.88 842 24.86 -2.6 27.3 63 -8.7 16.3 -92 -3.622
17:03 1012 29.88 842 24.86 -2.6 27.4 63 -8.7 16.3 -92 -3.622
17:04 1012 29.88 842 24.86 -2.5 27.4 62 -8.8 16.2 -91.9 -3.618
17:05 1012 29.88 842 24.86 -2.5 27.5 63 -8.6 16.6 -91.9 -3.618
17:06 1012 29.88 842 24.86 -2.5 27.6 64 -8.4 16.8 -91.9 -3.618
17:07 1012 29.88 842 24.86 -2.4 27.7 62 -8.7 16.3 -91.9 -3.618
17:08 1012 29.88 842 24.86 -2.4 27.7 62 -8.7 16.3 -91.9 -3.618
17:09 1012 29.88 842 24.86 -2.5 27.6 63 -8.6 16.5 -91.9 -3.618
17:10 1012 29.88 841 24.83 -2.5 27.5 61 -8.9 16 -91.9 -3.618
17:11 1012 29.88 842 24.86 -2.5 27.5 62 -8.9 16 -91.9 -3.618
17:12 1012 29.88 842 24.86 -2.5 27.5 61 -9 15.9 -92 -3.622
17:13 1012 29.88 842 24.86 -2.5 27.5 61 -9.1 15.7 -92.1 -3.626
17:14 1012 29.88 842 24.86 -2.5 27.6 60 -9.2 15.4 -92.2 -3.63
17:15 1012 29.88 842 24.86 -2.4 27.7 60 -9.2 15.4 -92.3 -3.634
17:16 1012 29.88 842 24.86 -2.3 27.8 60 -9.1 15.7 -92.3 -3.634
17:17 1012 29.88 842 24.86 -2.3 27.8 62 -8.7 16.4 -92.3 -3.634
17:18 1012 29.88 842 24.86 -2.5 27.6 61 -8.9 16 -92.3 -3.634
17:19 1012 29.88 842 24.86 -2.6 27.3 61 -9.2 15.5 -92.3 -3.634
17:20 1012 29.88 842 24.86 -2.7 27.1 61 -9.2 15.5 -92.4 -3.638
17:21 1012 29.88 842 24.86 -2.7 27.2 61 -9.2 15.4 -92.4 -3.638
17:22 1012 29.88 842 24.86 -2.7 27.1 61 -9.3 15.3 -92.4 -3.638
17:23 1012 29.88 842 24.86 -2.7 27.1 60 -9.4 15.1 -92.4 -3.638
17:24 1012 29.88 842 24.86 -2.7 27.1 61 -9.2 15.5 -92.4 -3.638
17:25 1012 29.88 842 24.86 -2.7 27.1 61 -9.2 15.4 -92.4 -3.638
17:26 1012 29.88 842 24.86 -2.7 27.2 60 -9.3 15.2 -92.4 -3.638
17:27 1012 29.88 842 24.86 -2.7 27.2 60 -9.5 15 -92.4 -3.638
17:28 1012 29.88 842 24.86 -2.6 27.3 59 -9.5 14.9 -92.4 -3.638
17:29 1013 29.91 842 24.86 -2.6 27.3 60 -9.4 15.1 -92.4 -3.638
17:30 1013 29.91 842 24.86 -2.6 27.3 60 -9.4 15.1 -92.4 -3.638
17:31 1013 29.91 842 24.86 -2.8 27 61 -9.4 15.1 -92.4 -3.638
17:32 1013 29.91 842 24.86 -2.8 26.9 60 -9.5 14.9 -92.4 -3.638
17:33 1013 29.91 842 24.86 -2.9 26.8 61 -9.3 15.2 -92.4 -3.638
17:34 1013 29.91 842 24.86 -2.9 26.8 62 -9.2 15.4 -92.4 -3.638
17:35 1013 29.91 842 24.86 -2.9 26.7 63 -9 15.7 -92.4 -3.638
17:36 1013 29.91 842 24.86 -3 26.6 62 -9.3 15.2 -92.4 -3.638
17:37 1013 29.91 842 24.86 -3 26.6 61 -9.5 14.9 -92.4 -3.638
17:38 1013 29.91 842 24.86 -2.9 26.8 61 -9.3 15.2 -92.4 -3.638
17:39 1013 29.91 842 24.86 -2.9 26.8 63 -9 15.8 -92.4 -3.638
17:40 1013 29.91 842 24.86 -3 26.7 63 -9.1 15.7 -92.4 -3.638
17:41 1013 29.91 842 24.86 -3.1 26.5 63 -9.1 15.5 -92.4 -3.638
17:42 1013 29.91 842 24.86 -3.1 26.5 61 -9.6 14.8 -92.4 -3.638
17:43 1013 29.91 842 24.86 -3.1 26.5 62 -9.4 15 -92.4 -3.638
17:44 1013 29.91 842 24.86 -3.1 26.4 61 -9.6 14.7 -92.4 -3.638
17:45 1013 29.91 842 24.86 -3.1 26.4 60 -9.8 14.4 -92.4 -3.638
17:46 1013 29.91 842 24.86 -3.1 26.4 60 -9.9 14.3 -92.4 -3.638
17:47 1013 29.91 842 24.86 -3.1 26.5 60 -9.8 14.3 -92.4 -3.638
17:48 1013 29.91 842 24.86 -3.1 26.5 56 -10.6 13 -92.4 -3.638
17:49 1013 29.91 842 24.86 -2.9 26.7 56 -10.5 13 -92.4 -3.638
17:50 1013 29.91 842 24.86 -2.8 27 57 -10.3 13.5 -92.4 -3.638
17:51 1013 29.91 842 24.86 -2.7 27.1 55 -10.6 13 -92.4 -3.638
17:52 1013 29.91 842 24.86 -2.7 27.1 54 -10.7 12.8 -92.4 -3.638
17:53 1013 29.91 842 24.86 -2.6 27.3 55 -10.5 13.1 -92.4 -3.638
17:54 1013 29.91 842 24.86 -2.7 27.2 55 -10.5 13.1 -92.4 -3.638
17:55 1013 29.91 842 24.86 -2.7 27.2 56 -10.3 13.5 -92.4 -3.638
17:56 1013 29.91 842 24.86 -2.8 27 57 -10.2 13.6 -92.4 -3.638
17:57 1013 29.91 842 24.86 -2.8 26.9 57 -10.2 13.6 -92.4 -3.638
17:58 1013 29.91 842 24.86 -2.8 26.9 57 -10.3 13.5 -92.4 -3.638
17:59 1013 29.91 842 24.86 -2.8 27 55 -10.6 13 -92.4 -3.638
18:00 1013 29.91 842 24.86 -2.7 27.1 54 -10.8 12.6 -92.4 -3.638
18:01 1013 29.91 842 24.86 -2.6 27.4 54 -10.5 13 -92.4 -3.638
18:02 1013 29.91 842 24.86 -2.6 27.4 55 -10.5 13.1 -92.4 -3.638
18:03 1013 29.91 842 24.86 -2.6 27.4 52 -11 12.1 -92.4 -3.638
18:04 1013 29.91 842 24.86 -2.5 27.5 52 -11 12.3 -92.5 -3.642
18:05 1013 29.91 842 24.86 -2.4 27.6 53 -10.8 12.5 -92.5 -3.642
18:06 1013 29.91 842 24.86 -2.4 27.6 54 -10.6 13 -92.5 -3.642
18:07 1013 29.91 842 24.86 -2.5 27.4 54 -10.6 13 -92.5 -3.642
18:08 1013 29.91 842 24.86 -2.7 27.1 55 -10.5 13.2 -92.5 -3.642
18:09 1013 29.91 842 24.86 -2.8 26.9 55 -10.7 12.7 -92.5 -3.642
18:10 1013 29.91 842 24.86 -2.8 26.9 56 -10.5 13.2 -92.5 -3.642
18:11 1013 29.91 842 24.86 -2.8 26.9 55 -10.7 12.7 -92.5 -3.642
18:12 1013 29.91 842 24.86 -2.9 26.8 56 -10.5 13.1 -92.5 -3.642
18:13 1013 29.91 842 24.86 -3 26.7 55 -10.7 12.7 -92.5 -3.642
18:14 1013 29.91 842 24.86 -3.1 26.5 57 -10.5 13.1 -92.5 -3.642
18:15 1013 29.91 842 24.86 -3.2 26.3 57 -10.5 13.1 -92.5 -3.642
18:16 1013 29.91 842 24.86 -3.3 26 58 -10.5 13.1 -92.5 -3.642
18:17 1013 29.91 842 24.86 -3.4 25.9 59 -10.3 13.4 -92.5 -3.642
18:18 1013 29.91 842 24.86 -3.6 25.6 59 -10.4 13.3 -92.5 -3.642
18:19 1013 29.91 842 24.86 -3.7 25.3 61 -10.3 13.5 -92.5 -3.642
18:20 1013 29.91 842 24.86 -3.9 25 62 -10.2 13.7 -92.5 -3.642
18:21 1013 29.91 842 24.86 -3.9 25 62 -10.2 13.6 -92.5 -3.642
18:22 1013 29.91 842 24.86 -3.8 25.1 61 -10.2 13.6 -92.5 -3.642
18:23 1013 29.91 842 24.86 -3.6 25.5 59 -10.5 13.1 -92.5 -3.642
18:24 1013 29.91 842 24.86 -3.4 25.8 60 -10 13.9 -92.5 -3.642
18:25 1013 29.91 842 24.86 -3.5 25.7 60 -10.3 13.5 -92.5 -3.642
18:26 1013 29.91 842 24.86 -3.5 25.7 60 -10.1 13.7 -92.5 -3.642
18:27 1013 29.91 842 24.86 -3.5 25.8 60 -10.1 13.7 -92.5 -3.642
18:28 1013 29.91 842 24.86 -3.4 25.8 60 -10.1 13.8 -92.5 -3.642
18:29 1013 29.91 842 24.86 -3.5 25.7 60 -10.3 13.5 -92.5 -3.642
18:30 1013 29.91 842 24.86 -3.5 25.7 59 -10.3 13.4 -92.5 -3.642
18:31 1013 29.91 842 24.86 -3.4 25.9 59 -10.4 13.3 -92.5 -3.642
18:32 1013 29.91 842 24.86 -3.3 26.1 58 -10.4 13.2 -92.5 -3.642
18:33 1013 29.91 842 24.86 -3.2 26.2 58 -10.3 13.4 -92.5 -3.642
18:34 1013 29.91 842 24.86 -3.2 26.2 59 -10.2 13.6 -92.5 -3.642
18:35 1013 29.91 842 24.86 -3.3 26 59 -10.2 13.6 -92.5 -3.642
18:36 1013 29.91 842 24.86 -3.4 25.8 60 -10.2 13.6 -92.5 -3.642
18:37 1013 29.91 842 24.86 -3.5 25.7 61 -10.1 13.8 -92.5 -3.642
18:38 1013 29.91 842 24.86 -3.6 25.5 60 -10.3 13.4 -92.5 -3.642
18:39 1013 29.91 842 24.86 -3.7 25.3 60 -10.3 13.4 -92.5 -3.642
18:40 1013 29.91 842 24.86 -3.8 25.1 60 -10.4 13.3 -92.5 -3.642
18:41 1013 29.91 842 24.86 -3.9 25 61 -10.4 13.4 -92.5 -3.642
18:42 1013 29.91 842 24.86 -4 24.8 61 -10.4 13.2 -92.5 -3.642
18:43 1013 29.91 842 24.86 -4.1 24.6 61 -10.5 13 -92.5 -3.642
18:44 1013 29.91 842 24.86 -4.2 24.5 60 -10.8 12.6 -92.5 -3.642
18:45 1013 29.91 842 24.86 -4.1 24.6 60 -10.8 12.5 -92.5 -3.642
18:46 1013 29.91 842 24.86 -4 24.8 59 -10.9 12.3 -92.5 -3.642
18:47 1013 29.91 842 24.86 -3.9 25 58 -10.9 12.4 -92.5 -3.642
18:48 1013 29.91 842 24.86 -3.8 25.1 58 -10.9 12.5 -92.5 -3.642
18:49 1013 29.91 842 24.86 -4 24.9 59 -10.9 12.4 -92.5 -3.642
18:50 1013 29.91 842 24.86 -4 24.8 59 -11 12.2 -92.6 -3.646
18:51 1013 29.91 842 24.86 -4.1 24.6 59 -10.9 12.3 -92.5 -3.642
18:52 1013 29.91 842 24.86 -4.2 24.4 60 -10.9 12.3 -92.5 -3.642
18:53 1013 29.91 842 24.86 -4.3 24.3 60 -10.9 12.3 -92.5 -3.642
18:54 1013 29.91 842 24.86 -4.3 24.3 60 -10.9 12.5 -92.6 -3.646
18:55 1013 29.91 842 24.86 -4.2 24.4 60 -10.8 12.5 -92.6 -3.646
18:56 1013 29.91 842 24.86 -4.2 24.4 60 -10.8 12.6 -92.6 -3.646
18:57 1013 29.91 842 24.86 -4.3 24.3 60 -10.8 12.5 -92.6 -3.646
18:58 1013 29.91 842 24.86 -4.3 24.2 60 -10.9 12.4 -92.5 -3.642
18:59 1013 29.91 842 24.86 -4.5 24 61 -10.9 12.4 -92.6 -3.646
19:00 1013 29.91 842 24.86 -4.5 23.9 61 -10.9 12.3 -92.6 -3.646
19:01 1013 29.91 842 24.86 -4.6 23.8 61 -11 12.2 -92.6 -3.646
19:02 1013 29.91 842 24.86 -4.6 23.8 61 -10.9 12.3 -92.6 -3.646
19:03 1013 29.91 842 24.86 -4.7 23.6 61 -11.1 12.1 -92.6 -3.646
19:04 1013 29.91 842 24.86 -4.8 23.4 62 -11 12.1 -92.6 -3.646
19:05 1013 29.91 842 24.86 -4.8 23.4 61 -11.2 11.9 -92.6 -3.646
19:06 1013 29.91 842 24.86 -4.8 23.3 61 -11.2 11.8 -92.6 -3.646
19:07 1013 29.91 842 24.86 -5 23 62 -11.2 11.8 -92.6 -3.646
19:08 1013 29.91 842 24.86 -5.2 22.7 63 -11.2 11.9 -92.6 -3.646
19:09 1013 29.91 842 24.86 -5.3 22.5 63 -11.2 11.9 -92.6 -3.646
19:10 1013 29.91 842 24.86 -5.4 22.3 64 -11.2 11.8 -92.6 -3.646
19:11 1013 29.91 842 24.86 -5.4 22.2 64 -11.2 11.8 -92.6 -3.646
19:12 1013 29.91 842 24.86 -5.4 22.3 64 -11.3 11.7 -92.6 -3.646
19:13 1013 29.91 842 24.86 -5.4 22.3 64 -11.2 11.8 -92.6 -3.646
19:14 1013 29.91 842 24.86 -5.4 22.2 64 -11.3 11.7 -92.6 -3.646
19:15 1013 29.91 842 24.86 -5.5 22.1 63 -11.4 11.5 -92.6 -3.646
19:16 1013 29.91 842 24.86 -5.6 22 64 -11.4 11.5 -92.6 -3.646
19:17 1013 29.91 842 24.86 -5.6 21.9 64 -11.4 11.5 -92.7 -3.65
19:18 1013 29.91 842 24.86 -5.6 21.9 64 -11.4 11.5 -92.7 -3.65
19:19 1013 29.91 842 24.86 -5.6 21.8 64 -11.4 11.5 -92.7 -3.65
19:20 1013 29.91 842 24.86 -5.6 21.9 64 -11.4 11.5 -92.7 -3.65
19:21 1013 29.91 842 24.86 -5.6 22 64 -11.3 11.6 -92.7 -3.65
19:22 1013 29.91 842 24.86 -5.5 22 63 -11.4 11.5 -92.7 -3.65
19:23 1013 29.91 842 24.86 -5.4 22.2 63 -11.3 11.6 -92.7 -3.65
19:24 1013 29.91 842 24.86 -5.3 22.5 63 -11.2 11.8 -92.7 -3.65
19:25 1013 29.91 842 24.86 -5.2 22.6 63 -11.2 11.8 -92.7 -3.65
19:26 1013 29.91 842 24.86 -5.2 22.6 63 -11.2 11.8 -92.7 -3.65
19:27 1013 29.91 842 24.86 -5.2 22.6 63 -11.2 11.8 -92.7 -3.65
19:28 1013 29.91 842 24.86 -5.2 22.6 63 -11.2 11.8 -92.7 -3.65
19:29 1013 29.91 842 24.86 -5.2 22.6 63 -11.2 11.8 -92.7 -3.65
19:30 1013 29.91 842 24.86 -5.2 22.6 63 -11.1 12 -92.7 -3.65
19:31 1013 29.91 842 24.86 -5.2 22.6 63 -11.2 11.9 -92.7 -3.65
19:32 1013 29.91 842 24.86 -5.3 22.5 64 -11.1 12 -92.7 -3.65
19:33 1013 29.91 842 24.86 -5.3 22.4 64 -11 12.2 -92.7 -3.65
19:34 1013 29.91 842 24.86 -5.4 22.4 65 -11 12.3 -92.7 -3.65
19:35 1013 29.91 842 24.86 -5.4 22.3 65 -11 12.3 -92.7 -3.65
19:36 1013 29.91 842 24.86 -5.4 22.3 66 -10.9 12.4 -92.7 -3.65
19:37 1013 29.91 842 24.86 -5.4 22.2 65 -10.9 12.3 -92.7 -3.65
19:38 1013 29.91 842 24.86 -5.5 22.1 66 -11 12.3 -92.7 -3.65
19:39 1013 29.91 842 24.86 -5.6 22 66 -10.9 12.5 -92.7 -3.65
19:40 1013 29.91 842 24.86 -5.6 21.9 66 -10.9 12.3 -92.7 -3.65
19:41 1013 29.91 842 24.86 -5.6 21.9 66 -11 12.1 -92.7 -3.65
19:42 1013 29.91 842 24.86 -5.5 22 65 -11.1 12 -92.7 -3.65
19:43 1013 29.91 842 24.86 -5.4 22.2 64 -11.2 11.8 -92.7 -3.65
19:44 1013 29.91 842 24.86 -5.3 22.5 64 -11.1 12.1 -92.7 -3.65
19:45 1013 29.91 842 24.86 -5.1 22.8 63 -11.2 11.8 -92.7 -3.65
19:46 1013 29.91 842 24.86 -5 23.1 62 -11.2 11.8 -92.7 -3.65
19:47 1013 29.91 842 24.86 -4.8 23.3 62 -11.1 12.1 -92.7 -3.65
19:48 1013 29.91 842 24.86 -4.8 23.3 62 -11 12.3 -92.7 -3.65
19:49 1013 29.91 842 24.86 -4.9 23.2 62 -11 12.2 -92.7 -3.65
19:50 1013 29.91 842 24.86 -4.9 23.2 62 -11.1 12.1 -92.7 -3.65
19:51 1013 29.91 842 24.86 -4.9 23.2 62 -11.1 12 -92.7 -3.65
19:52 1013 29.91 842 24.86 -4.8 23.3 63 -10.8 12.6 -92.7 -3.65
19:53 1013 29.91 842 24.86 -5 23.1 64 -10.8 12.5 -92.7 -3.65
19:54 1013 29.91 842 24.86 -5.1 22.9 64 -10.9 12.3 -92.7 -3.65
19:55 1013 29.91 842 24.86 -5.1 22.8 65 -10.8 12.6 -92.7 -3.65
19:56 1013 29.91 842 24.86 -5.2 22.7 66 -10.6 12.9 -92.7 -3.65
19:57 1013 29.91 842 24.86 -5.2 22.6 65 -10.8 12.6 -92.7 -3.65
19:58 1013 29.91 842 24.86 -5.3 22.5 66 -10.7 12.8 -92.7 -3.65
19:59 1013 29.91 842 24.86 -5.3 22.5 65 -10.8 12.6 -92.7 -3.65
20:00 1013 29.91 842 24.86 -5.3 22.4 65 -10.9 12.3 -92.7 -3.65
20:01 1013 29.91 842 24.86 -5.3 22.4 66 -10.7 12.7 -92.7 -3.65
20:02 1013 29.91 842 24.86 -5.4 22.4 66 -10.7 12.7 -92.7 -3.65
20:03 1013 29.91 842 24.86 -5.4 22.3 65 -10.9 12.3 -92.7 -3.65
20:04 1013 29.91 842 24.86 -5.4 22.4 65 -10.9 12.5 -92.7 -3.65
20:05 1013 29.91 842 24.86 -5.3 22.4 65 -10.9 12.4 -92.7 -3.65
20:06 1013 29.91 842 24.86 -5.3 22.4 65 -11 12.2 -92.7 -3.65
20:07 1013 29.91 842 24.86 -5.2 22.6 64 -11 12.2 -92.7 -3.65
20:08 1013 29.91 842 24.86 -5.2 22.7 64 -11 12.2 -92.7 -3.65
20:09 1013 29.91 842 24.86 -5.2 22.7 63 -11.1 12 -92.7 -3.65
20:10 1013 29.91 842 24.86 -5.1 22.8 63 -11.1 12.1 -92.7 -3.65
20:11 1013 29.91 842 24.86 -5.1 22.8 64 -10.9 12.4 -92.7 -3.65
20:12 1013 29.91 842 24.86 -5.2 22.7 64 -11 12.2 -92.7 -3.65
20:13 1013 29.91 842 24.86 -5.2 22.6 64 -11.1 12 -92.7 -3.65
20:14 1013 29.91 842 24.86 -5.2 22.6 63 -11.2 11.9 -92.8 -3.654
20:15 1013 29.91 842 24.86 -5.3 22.5 64 -11.1 12 -92.8 -3.654
20:16 1013 29.91 842 24.86 -5.3 22.4 64 -11.2 11.8 -92.7 -3.65
20:17 1013 29.91 842 24.86 -5.4 22.3 63 -11.3 11.6 -92.7 -3.65
20:18 1013 29.91 842 24.86 -5.5 22.1 64 -11.3 11.7 -92.8 -3.654
20:19 1013 29.91 842 24.86 -5.6 21.9 64 -11.4 11.5 -92.8 -3.654
20:20 1013 29.91 842 24.86 -5.6 21.9 64 -11.5 11.3 -92.8 -3.654
20:21 1013 29.91 842 24.86 -5.7 21.8 64 -11.5 11.3 -92.8 -3.654
20:22 1013 29.91 842 24.86 -5.6 21.8 63 -11.6 11.2 -92.8 -3.654
20:23 1013 29.91 842 24.86 -5.6 21.9 63 -11.5 11.3 -92.8 -3.654
20:24 1013 29.91 842 24.86 -5.5 22.1 63 -11.5 11.3 -92.8 -3.654
20:25 1013 29.91 842 24.86 -5.4 22.3 62 -11.5 11.3 -92.8 -3.654
20:26 1013 29.91 842 24.86 -5.3 22.4 62 -11.5 11.3 -92.8 -3.654
20:27 1013 29.91 842 24.86 -5.3 22.5 62 -11.5 11.3 -92.8 -3.654
20:28 1013 29.91 842 24.86 -5.3 22.5 62 -11.6 11.2 -92.8 -3.654
20:29 1013 29.91 842 24.86 -5.2 22.6 61 -11.6 11.1 -92.8 -3.654
20:30 1013 29.91 842 24.86 -5.2 22.7 60 -11.7 11 -92.8 -3.654
20:31 1013 29.91 842 24.86 -5.2 22.7 61 -11.6 11.1 -92.8 -3.654
20:32 1013 29.91 842 24.86 -5.3 22.5 61 -11.8 10.8 -92.8 -3.654
20:33 1013 29.91 842 24.86 -5.4 22.3 61 -11.9 10.7 -92.8 -3.654
20:34 1013 29.91 842 24.86 -5.4 22.3 61 -11.8 10.8 -92.8 -3.654
20:35 1013 29.91 842 24.86 -5.4 22.3 60 -11.9 10.6 -92.8 -3.654
20:36 1013 29.91 842 24.86 -5.4 22.3 60 -11.9 10.5 -92.8 -3.654
20:37 1013 29.91 842 24.86 -5.4 22.2 61 -11.9 10.6 -92.8 -3.654
20:38 1013 29.91 842 24.86 -5.6 22 61 -12 10.4 -92.8 -3.654
20:39 1013 29.91 842 24.86 -5.7 21.8 61 -12.1 10.2 -92.8 -3.654
20:40 1013 29.91 842 24.86 -5.8 21.5 62 -12 10.4 -92.8 -3.654
20:41 1013 29.91 842 24.86 -6 21.3 62 -12.1 10.3 -92.8 -3.654
20:42 1013 29.91 842 24.86 -5.9 21.4 63 -11.9 10.6 -92.9 -3.657
20:43 1013 29.91 842 24.86 -5.8 21.5 62 -11.9 10.6 -92.9 -3.657
20:44 1013 29.91 842 24.86 -5.7 21.7 62 -11.9 10.6 -92.9 -3.657
20:45 1013 29.91 842 24.86 -5.9 21.4 62 -11.9 10.5 -92.9 -3.657
20:46 1013 29.91 842 24.86 -5.9 21.3 63 -11.8 10.8 -92.9 -3.657
20:47 1013 29.91 842 24.86 -5.8 21.6 62 -11.9 10.5 -92.9 -3.657
20:48 1013 29.91 842 24.86 -5.7 21.8 62 -11.9 10.6 -92.9 -3.657
20:49 1013 29.91 843 24.89 -5.6 22 62 -11.7 10.9 -92.9 -3.657
20:50 1013 29.91 842 24.86 -5.4 22.3 60 -11.9 10.6 -92.9 -3.657
20:51 1013 29.91 842 24.86 -5.4 22.3 60 -11.9 10.6 -92.9 -3.657
20:52 1013 29.91 843 24.89 -5.6 22 62 -11.9 10.7 -92.9 -3.657
20:53 1013 29.91 843 24.89 -5.7 21.7 62 -11.9 10.6 -92.9 -3.657
20:54 1013 29.91 843 24.89 -5.8 21.6 62 -11.9 10.5 -92.9 -3.657
20:55 1013 29.91 843 24.89 -5.9 21.4 62 -12 10.3 -92.9 -3.657
20:56 1013 29.91 843 24.89 -6.2 20.9 63 -12 10.3 -92.9 -3.657
20:57 1013 29.91 843 24.89 -6.4 20.4 64 -12.1 10.3 -92.9 -3.657
20:58 1013 29.91 843 24.89 -6.6 20 66 -12 10.4 -92.9 -3.657
20:59 1013 29.91 843 24.89 -6.7 19.9 66 -12 10.4 -92.9 -3.657
21:00 1013 29.91 843 24.89 -6.7 20 66 -12 10.5 -92.9 -3.657
21:01 1013 29.91 843 24.89 -6.7 19.9 67 -11.9 10.6 -92.9 -3.657
21:02 1013 29.91 843 24.89 -6.7 19.9 67 -11.9 10.6 -92.9 -3.657
21:03 1013 29.91 843 24.89 -6.5 20.2 66 -11.9 10.7 -92.9 -3.657
21:04 1013 29.91 843 24.89 -6.6 20.1 66 -11.9 10.7 -92.9 -3.657
21:05 1013 29.91 843 24.89 -6.7 20 67 -11.9 10.6 -92.9 -3.657
21:06 1013 29.91 843 24.89 -6.6 20.1 66 -11.9 10.6 -92.9 -3.657
21:07 1013 29.91 843 24.89 -6.7 20 67 -11.9 10.6 -92.9 -3.657
21:08 1013 29.91 843 24.89 -6.7 20 67 -11.8 10.7 -92.9 -3.657
21:09 1013 29.91 843 24.89 -6.7 19.9 67 -11.9 10.6 -92.9 -3.657
21:10 1013 29.91 843 24.89 -6.8 19.8 67 -11.9 10.5 -92.9 -3.657
21:11 1013 29.91 843 24.89 -6.9 19.7 67 -12 10.4 -92.9 -3.657
21:12 1013 29.91 843 24.89 -6.9 19.6 67 -12 10.3 -92.9 -3.657
21:13 1013 29.91 843 24.89 -6.8 19.7 67 -12 10.5 -92.9 -3.657
21:14 1013 29.91 843 24.89 -6.8 19.8 67 -11.9 10.5 -92.9 -3.657
21:15 1013 29.91 843 24.89 -6.7 20 66 -11.9 10.5 -92.9 -3.657
21:16 1013 29.91 843 24.89 -6.5 20.3 66 -11.9 10.5 -92.9 -3.657
21:17 1014 29.94 843 24.89 -6.5 20.3 65 -11.9 10.5 -92.9 -3.657
21:18 1014 29.94 843 24.89 -6.6 20.1 66 -11.9 10.5 -92.9 -3.657
21:19 1014 29.94 843 24.89 -6.8 19.8 66 -12.1 10.3 -92.9 -3.657
21:20 1014 29.94 843 24.89 -7 19.5 67 -12 10.4 -92.9 -3.657
21:21 1014 29.94 843 24.89 -7.1 19.3 68 -12.1 10.2 -92.9 -3.657
21:22 1014 29.94 843 24.89 -7.2 19.1 68 -12.1 10.3 -92.9 -3.657
21:23 1014 29.94 843 24.89 -7.3 18.9 69 -12.1 10.3 -92.9 -3.657
21:24 1014 29.94 843 24.89 -7.4 18.8 69 -12.1 10.3 -92.9 -3.657
21:25 1014 29.94 843 24.89 -7.4 18.7 69 -12.1 10.2 -92.9 -3.657
21:26 1014 29.94 843 24.89 -7.4 18.6 69 -12.1 10.2 -92.9 -3.657
21:27 1014 29.94 843 24.89 -7.5 18.5 70 -12.1 10.3 -92.9 -3.657
21:28 1014 29.94 843 24.89 -7.5 18.6 70 -12 10.4 -92.9 -3.657
21:29 1014 29.94 843 24.89 -7.5 18.6 70 -12.1 10.2 -92.9 -3.657
21:30 1014 29.94 843 24.89 -7.5 18.5 69 -12.1 10.1 -92.9 -3.657
21:31 1014 29.94 843 24.89 -7.5 18.4 69 -12.3 9.9 -92.9 -3.657
21:32 1014 29.94 843 24.89 -7.7 18.2 72 -12 10.4 -92.9 -3.657
21:33 1014 29.94 843 24.89 -7.7 18.1 70 -12.2 10.1 -92.9 -3.657
21:34 1014 29.94 843 24.89 -7.7 18.1 71 -12.1 10.2 -92.9 -3.657
21:35 1014 29.94 843 24.89 -7.7 18.1 73 -11.8 10.7 -92.9 -3.657
21:36 1014 29.94 843 24.89 -7.5 18.5 69 -12.3 9.9 -92.9 -3.657
21:37 1014 29.94 843 24.89 -7.5 18.6 70 -12 10.4 -92.9 -3.657
21:38 1014 29.94 843 24.89 -7.5 18.4 69 -12.2 10 -92.8 -3.654
21:39 1014 29.94 843 24.89 -7.5 18.5 70 -12.2 10.1 -92.8 -3.654
21:40 1014 29.94 843 24.89 -7.6 18.3 69 -12.3 9.8 -92.8 -3.654
21:41 1014 29.94 843 24.89 -7.8 18 69 -12.5 9.6 -92.8 -3.654
21:42 1014 29.94 843 24.89 -7.9 17.7 70 -12.5 9.4 -92.8 -3.654
21:43 1014 29.94 843 24.89 -8.1 17.4 71 -12.5 9.6 -92.8 -3.654
21:44 1014 29.94 843 24.89 -8.2 17.3 71 -12.5 9.5 -92.8 -3.654
21:45 1014 29.94 843 24.89 -8.3 17.1 71 -12.6 9.3 -92.8 -3.654
21:46 1014 29.94 843 24.89 -8.4 16.9 72 -12.6 9.3 -92.8 -3.654
21:47 1014 29.94 843 24.89 -8.5 16.8 72 -12.6 9.3 -92.8 -3.654
21:48 1014 29.94 843 24.89 -8.6 16.6 72 -12.7 9.1 -92.8 -3.654
21:49 1014 29.94 843 24.89 -8.7 16.3 74 -12.5 9.5 -92.8 -3.654
21:50 1014 29.94 843 24.89 -8.7 16.4 74 -12.6 9.3 -92.7 -3.65
21:51 1014 29.94 843 24.89 -8.6 16.4 73 -12.6 9.3 -92.7 -3.65
21:52 1014 29.94 843 24.89 -8.6 16.5 74 -12.5 9.6 -92.7 -3.65
21:53 1014 29.94 843 24.89 -8.6 16.6 75 -12.3 9.9 -92.7 -3.65
21:54 1014 29.94 843 24.89 -8.4 16.9 74 -12.3 9.9 -92.6 -3.646
21:55 1014 29.94 843 24.89 -8.2 17.2 74 -12.1 10.2 -92.6 -3.646
21:56 1014 29.94 843 24.89 -8.1 17.5 73 -12.1 10.1 -92.6 -3.646
21:57 1014 29.94 843 24.89 -7.9 17.7 71 -12.3 9.8 -92.6 -3.646
21:58 1014 29.94 843 24.89 -8 17.6 71 -12.4 9.6 -92.6 -3.646
21:59 1014 29.94 843 24.89 -8.1 17.5 71 -12.4 9.7 -92.6 -3.646
22:00 1014 29.94 843 24.89 -8.1 17.4 73 -12.2 10 -92.6 -3.646
22:01 1014 29.94 843 24.89 -8.1 17.4 73 -12.2 10 -92.6 -3.646
22:02 1014 29.94 843 24.89 -8.1 17.4 73 -12.2 10.1 -92.6 -3.646
22:03 1014 29.94 843 24.89 -8.1 17.5 73 -12.1 10.1 -92.6 -3.646
22:04 1014 29.94 843 24.89 -8 17.5 72 -12.2 10 -92.5 -3.642
22:05 1014 29.94 843 24.89 -8 17.5 72 -12.2 10.1 -92.5 -3.642
22:06 1014 29.94 843 24.89 -8 17.6 73 -12 10.4 -92.5 -3.642
22:07 1014 29.94 843 24.89 -8 17.6 73 -11.9 10.5 -92.5 -3.642
22:08 1014 29.94 843 24.89 -7.9 17.8 73 -11.9 10.6 -92.5 -3.642
22:09 1014 29.94 843 24.89 -7.5 18.4 71 -11.9 10.5 -92.5 -3.642
22:10 1014 29.94 843 24.89 -7.3 18.9 70 -11.9 10.6 -92.5 -3.642
22:11 1014 29.94 843 24.89 -7.1 19.1 70 -11.8 10.7 -92.6 -3.646
22:12 1014 29.94 843 24.89 -7 19.4 68 -11.9 10.5 -92.6 -3.646
22:13 1014 29.94 843 24.89 -6.9 19.6 66 -12.1 10.2 -92.6 -3.646
22:14 1014 29.94 843 24.89 -7 19.4 67 -12.2 10.1 -92.6 -3.646
22:15 1014 29.94 843 24.89 -7.3 18.9 67 -12.5 9.6 -92.7 -3.65
22:16 1014 29.94 843 24.89 -7.5 18.5 68 -12.5 9.5 -92.7 -3.65
22:17 1014 29.94 843 24.89 -7.6 18.3 68 -12.5 9.4 -92.7 -3.65
22:18 1014 29.94 843 24.89 -7.8 18 71 -12.2 10.1 -92.8 -3.654
22:19 1014 29.94 843 24.89 -7.8 18 69 -12.6 9.4 -92.8 -3.654
22:20 1014 29.94 843 24.89 -7.9 17.9 69 -12.6 9.4 -92.8 -3.654
22:21 1014 29.94 843 24.89 -7.9 17.8 72 -12.1 10.2 -92.8 -3.654
22:22 1014 29.94 843 24.89 -7.6 18.4 71 -12 10.5 -92.9 -3.657
22:23 1014 29.94 843 24.89 -7 19.4 68 -12 10.5 -92.9 -3.657
22:24 1014 29.94 843 24.89 -6.7 19.9 68 -11.7 10.9 -92.9 -3.657
22:25 1014 29.94 843 24.89 -6.6 20.2 67 -11.7 10.9 -92.9 -3.657
22:26 1014 29.94 843 24.89 -6.5 20.3 66 -11.8 10.8 -92.9 -3.657
22:27 1014 29.94 843 24.89 -6.6 20.1 66 -11.9 10.5 -92.9 -3.657
22:28 1014 29.94 843 24.89 -6.9 19.7 68 -11.9 10.6 -93 -3.661
22:29 1014 29.94 843 24.89 -6.9 19.5 67 -12.1 10.2 -93 -3.661
22:30 1014 29.94 843 24.89 -7.1 19.3 67 -12.3 9.9 -93 -3.661
22:31 1014 29.94 843 24.89 -7.2 19 68 -12.2 10.1 -93 -3.661
22:32 1014 29.94 843 24.89 -7.4 18.6 68 -12.4 9.7 -93 -3.661
22:33 1014 29.94 843 24.89 -7.5 18.4 70 -12.1 10.3 -93 -3.661
22:34 1014 29.94 843 24.89 -7.5 18.5 70 -12.1 10.2 -93 -3.661
22:35 1014 29.94 843 24.89 -7.5 18.5 70 -12.1 10.3 -93 -3.661
22:36 1014 29.94 843 24.89 -7.5 18.6 69 -12.2 10.1 -93 -3.661
22:37 1014 29.94 843 24.89 -7.6 18.3 69 -12.4 9.7 -93 -3.661
22:38 1014 29.94 843 24.89 -7.8 18 70 -12.4 9.7 -93 -3.661
22:39 1014 29.94 843 24.89 -7.9 17.8 72 -12 10.3 -93 -3.661
22:40 1014 29.94 843 24.89 -7.8 18 71 -12.2 10.1 -93 -3.661
22:41 1014 29.94 843 24.89 -7.7 18.2 69 -12.4 9.8 -93 -3.661
22:42 1014 29.94 843 24.89 -7.8 18 70 -12.4 9.7 -93 -3.661
22:43 1014 29.94 843 24.89 -8 17.7 70 -12.5 9.4 -93 -3.661
22:44 1014 29.94 843 24.89 -8.1 17.3 69 -12.9 8.8 -93 -3.661
22:45 1014 29.94 843 24.89 -8.5 16.8 70 -13 8.6 -93 -3.661
22:46 1014 29.94 843 24.89 -8.8 16.2 72 -13 8.7 -93 -3.661
22:47 1014 29.94 843 24.89 -9 15.9 74 -12.9 8.9 -93 -3.661
22:48 1014 29.94 843 24.89 -9 15.8 74 -12.8 9 -93 -3.661
22:49 1014 29.94 843 24.89 -9 15.8 75 -12.6 9.4 -92.9 -3.657
22:50 1014 29.94 843 24.89 -8.9 16 74 -12.8 9 -92.9 -3.657
22:51 1014 29.94 843 24.89 -8.9 16.1 75 -12.5 9.4 -92.9 -3.657
22:52 1014 29.94 843 24.89 -8.8 16.2 74 -12.6 9.4 -92.8 -3.654
22:53 1014 29.94 843 24.89 -8.8 16.1 73 -12.7 9.1 -92.8 -3.654
22:54 1014 29.94 843 24.89 -8.8 16.3 74 -12.6 9.2 -92.8 -3.654
22:55 1014 29.94 843 24.89 -8.8 16.2 73 -12.9 8.9 -92.8 -3.654
22:56 1014 29.94 843 24.89 -8.8 16.2 73 -12.9 8.8 -92.8 -3.654
22:57 1014 29.94 843 24.89 -8.9 16 72 -13.1 8.4 -92.8 -3.654
22:58 1014 29.94 843 24.89 -9 15.7 71 -13.3 8 -92.8 -3.654
22:59 1014 29.94 843 24.89 -9.2 15.4 72 -13.4 7.9 -92.8 -3.654
23:00 1014 29.94 843 24.89 -9.3 15.2 73 -13.4 8 -92.8 -3.654
23:01 1014 29.94 843 24.89 -9.5 15 74 -13.3 8 -92.8 -3.654
23:02 1014 29.94 843 24.89 -9.5 14.9 75 -13.2 8.3 -92.8 -3.654
23:03 1014 29.94 843 24.89 -9.5 14.9 75 -13.1 8.4 -92.8 -3.654
23:04 1014 29.94 843 24.89 -9.4 15 75 -13 8.6 -92.8 -3.654
23:05 1014 29.94 843 24.89 -9.4 15.1 75 -13 8.6 -92.8 -3.654
23:06 1014 29.94 843 24.89 -9.3 15.2 75 -13 8.6 -92.8 -3.654
23:07 1014 29.94 843 24.89 -9.3 15.3 75 -13 8.6 -92.8 -3.654
23:08 1014 29.94 843 24.89 -9.3 15.2 74 -13.1 8.5 -92.7 -3.65
23:09 1014 29.94 843 24.89 -9.4 15.1 75 -13 8.5 -92.7 -3.65
23:10 1014 29.94 843 24.89 -9.5 14.9 74 -13.3 8.1 -92.7 -3.65
23:11 1014 29.94 843 24.89 -9.7 14.5 74 -13.5 7.6 -92.8 -3.654
23:12 1014 29.94 843 24.89 -10 14.1 76 -13.4 7.9 -92.8 -3.654
23:13 1014 29.94 843 24.89 -10.1 13.8 76 -13.6 7.5 -92.8 -3.654
23:14 1014 29.94 843 24.89 -10.2 13.6 79 -13.2 8.2 -92.8 -3.654
23:15 1014 29.94 843 24.89 -10.2 13.7 79 -13.1 8.4 -92.8 -3.654
23:16 1014 29.94 844 24.92 -10 14 78 -13.1 8.4 -92.8 -3.654
23:17 1014 29.94 844 24.92 -9.9 14.3 78 -13 8.6 -92.7 -3.65
23:18 1014 29.94 844 24.92 -9.7 14.5 79 -12.8 9 -92.7 -3.65
23:19 1014 29.94 844 24.92 -9.6 14.8 78 -12.8 9 -92.7 -3.65
23:20 1014 29.94 844 24.92 -9.5 15 76 -13 8.6 -92.7 -3.65
23:21 1014 29.94 844 24.92 -9.5 14.9 76 -13 8.6 -92.7 -3.65
23:22 1014 29.94 844 24.92 -9.6 14.8 77 -12.9 8.8 -92.7 -3.65
23:23 1014 29.94 844 24.92 -9.6 14.8 77 -13 8.7 -92.7 -3.65
23:24 1014 29.94 844 24.92 -9.6 14.7 77 -13 8.7 -92.7 -3.65
23:25 1014 29.94 844 24.92 -9.6 14.8 76 -13 8.6 -92.7 -3.65
23:26 1014 29.94 844 24.92 -9.6 14.8 76 -13.1 8.4 -92.7 -3.65
23:27 1014 29.94 844 24.92 -9.6 14.7 76 -13.1 8.4 -92.7 -3.65
23:28 1014 29.94 844 24.92 -9.7 14.6 76 -13.1 8.4 -92.7 -3.65
23:29 1014 29.94 844 24.92 -9.7 14.5 76 -13.2 8.2 -92.8 -3.654
23:30 1014 29.94 844 24.92 -9.8 14.3 77 -13.1 8.4 -92.8 -3.654
23:31 1014 29.94 844 24.92 -9.9 14.2 77 -13.3 8.1 -92.8 -3.654
23:32 1014 29.94 844 24.92 -10 14.1 76 -13.4 7.9 -92.7 -3.65
23:33 1014 29.94 844 24.92 -10.1 13.8 76 -13.5 7.7 -92.8 -3.654
23:34 1014 29.94 844 24.92 -10.2 13.7 76 -13.7 7.4 -92.8 -3.654
23:35 1014 29.94 844 24.92 -10.3 13.4 76 -13.7 7.3 -92.8 -3.654
23:36 1014 29.94 844 24.92 -10.4 13.3 79 -13.4 8 -92.8 -3.654
23:37 1014 29.94 844 24.92 -10.2 13.7 79 -13.1 8.4 -92.8 -3.654
23:38 1014 29.94 844 24.92 -9.8 14.5 78 -12.9 8.8 -92.8 -3.654
23:39 1014 29.94 844 24.92 -9.3 15.2 75 -12.9 8.8 -92.8 -3.654
23:40 1014 29.94 844 24.92 -9.1 15.6 74 -13 8.6 -92.8 -3.654
23:41 1014 29.94 844 24.92 -9.1 15.7 74 -13 8.7 -92.8 -3.654
23:42 1014 29.94 844 24.92 -9.1 15.6 74 -13 8.6 -92.9 -3.657
23:43 1014 29.94 844 24.92 -9.2 15.5 74 -13 8.7 -92.9 -3.657
23:44 1014 29.94 843 24.89 -9.2 15.5 74 -13 8.6 -92.9 -3.657
23:45 1014 29.94 843 24.89 -9.2 15.5 73 -13.2 8.3 -92.9 -3.657
23:46 1014 29.94 844 24.92 -9.2 15.4 74 -13.1 8.4 -92.9 -3.657
23:47 1014 29.94 844 24.92 -9.3 15.3 74 -13.2 8.3 -92.9 -3.657
23:48 1014 29.94 843 24.89 -9.3 15.4 72 -13.5 7.7 -93 -3.661
23:49 1014 29.94 844 24.92 -9.5 15 70 -14 6.8 -93 -3.661
23:50 1014 29.94 844 24.92 -9.9 14.2 72 -13.9 6.9 -93 -3.661
23:51 1014 29.94 844 24.92 -10.1 13.7 75 -13.8 7.1 -93 -3.661
23:52 1014 29.94 844 24.92 -10.2 13.6 75 -13.8 7.1 -93 -3.661
23:53 1014 29.94 844 24.92 -10.2 13.6 76 -13.8 7.2 -93 -3.661
23:54 1014 29.94 844 24.92 -10.2 13.6 75 -13.9 7 -93 -3.661
23:55 1014 29.94 844 24.92 -10.3 13.5 76 -13.7 7.3 -93 -3.661
23:56 1014 29.94 844 24.92 -10.3 13.5 76 -13.7 7.4 -93 -3.661
23:57 1014 29.94 844 24.92 -10.2 13.6 75 -13.8 7.2 -93 -3.661
23:58 1014 29.94 844 24.92 -10.2 13.7 77 -13.5 7.6 -93 -3.661
23:59 1014 29.94 844 24.92 -10.1 13.8 76 -13.5 7.6 -93 -3.661
24:00 1014 29.94 844 24.92 -10 13.9 76 -13.5 7.7 -92.9 -3.657